Time;durP1;ratioP1;P1;durP2;ratioP2;P2;SDS_P1;SDS_P2;PMS_P1;PMS_P2;Temp;Humidity;BMP_temperature;BMP_pressure;BME280_temperature;BME280_humidity;BME280_pressure;Samples;Min_cycle;Max_cycle;Signal;HPM_P1;HPM_P2
2022/07/05 00:00:00;;;;;;;4.25;2.03;;;;;;;-148.88;66.92;75787.38;5036313;28;20024;-83
2022/07/05 00:02:25;;;;;;;4.53;1.70;;;;;;;-148.88;66.86;75797.53;5055584;28;20101;-83
2022/07/05 00:04:50;;;;;;;3.75;1.90;;;;;;;-148.88;67.08;75797.53;5037599;28;20023;-83
2022/07/05 00:07:20;;;;;;;2.30;1.70;;;;;;;-148.88;67.69;75815.81;5038013;28;20021;-83
2022/07/05 00:09:52;;;;;;;5.32;1.73;;;;;;;-148.88;67.48;75809.72;5037530;28;20029;-84
2022/07/05 00:12:19;;;;;;;3.22;1.58;;;;;;;-148.88;67.06;75815.81;5057884;28;20445;-83
2022/07/05 00:14:52;;;;;;;2.55;1.88;;;;;;;-148.88;67.71;75819.88;5098984;22;20418;-86
2022/07/05 00:17:24;;;;;;;4.80;1.70;;;;;;;-148.88;67.86;75825.97;5038240;28;20110;-86
2022/07/05 00:20:10;;;;;;;4.72;2.20;;;;;;;-148.88;68.59;75832.06;5036583;28;20025;-85
2022/07/05 00:23:06;;;;;;;;;;;;;;;;;;;;;
2022/07/05 00:25:38;;;;;;;3.72;1.83;;;;;;;-148.88;68.81;75834.09;5036483;28;20021;-86
2022/07/05 00:28:15;;;;;;;4.03;1.90;;;;;;;-148.88;69.13;75844.25;5018454;28;20049;-85
2022/07/05 00:30:55;;;;;;;3.13;1.98;;;;;;;-148.88;69.13;75838.16;5019040;28;20040;-85
2022/07/05 00:33:44;;;;;;;3.33;1.40;;;;;;;-148.88;69.94;75854.41;5018867;28;20075;-85
2022/07/05 00:36:12;;;;;;;3.47;1.88;;;;;;;-148.88;69.76;75848.31;5036521;28;20528;-85
2022/07/05 00:38:45;;;;;;;3.05;1.98;;;;;;;-148.88;70.43;75858.47;5036158;28;20415;-85
2022/07/05 00:41:11;;;;;;;6.75;2.38;;;;;;;-148.88;70.20;75856.44;5018846;28;20064;-86
2022/07/05 00:44:18;;;;;;;3.75;2.28;;;;;;;-148.88;70.20;75858.47;5034379;28;20056;-86
2022/07/05 00:47:06;;;;;;;4.57;1.95;;;;;;;-148.88;70.04;75850.34;5017839;28;20029;-85
2022/07/05 00:49:36;;;;;;;3.38;1.90;;;;;;;-148.88;70.23;75848.31;5018738;28;20108;-85
2022/07/05 00:52:29;;;;;;;3.83;2.20;;;;;;;-148.88;70.82;75860.50;5016857;28;20494;-85
2022/07/05 00:55:23;;;;;;;6.70;2.10;;;;;;;-148.88;71.28;75854.41;5018067;28;20033;-86
2022/07/05 00:58:08;;;;;;;;;;;;;;;;;;;;;
2022/07/05 01:00:42;;;;;;;3.65;2.10;;;;;;;-148.88;71.35;75858.47;5035364;28;20035;-85
2022/07/05 01:03:12;;;;;;;4.25;2.20;;;;;;;-148.88;71.92;75874.72;5018106;28;20092;-86
2022/07/05 01:05:52;;;;;;;;;;;;;;;;;;;;;
2022/07/05 01:08:17;;;;;;;4.95;2.20;;;;;;;-148.88;71.79;75868.63;5035992;28;20028;-85
2022/07/05 01:10:46;;;;;;;2.97;2.10;;;;;;;-148.88;71.73;75846.28;5017016;28;20112;-85
2022/07/05 01:13:11;;;;;;;4.20;2.30;;;;;;;-148.88;71.92;75846.28;5042760;22;20026;-76
2022/07/05 01:15:38;;;;;;;6.05;2.22;;;;;;;-148.88;71.90;75850.34;5054194;28;20090;-77
2022/07/05 01:18:05;;;;;;;3.90;2.33;;;;;;;-148.88;71.63;75854.41;5054694;28;20060;-76
2022/07/05 01:20:30;;;;;;;4.03;2.10;;;;;;;-148.88;71.71;75850.34;5054543;28;20056;-76
2022/07/05 01:22:59;;;;;;;3.83;2.10;;;;;;;-148.88;72.55;75852.38;5054869;28;20029;-76
2022/07/05 01:25:26;;;;;;;5.72;2.38;;;;;;;-148.88;72.26;75858.47;5036761;28;20067;-76
2022/07/05 01:27:52;;;;;;;4.18;2.17;;;;;;;-148.88;72.86;75876.75;5054642;28;20050;-76
2022/07/05 01:30:18;;;;;;;4.40;2.30;;;;;;;-148.88;73.34;75880.81;5054316;28;20025;-76
2022/07/05 01:32:44;;;;;;;3.67;2.22;;;;;;;-148.88;73.22;75880.81;5054468;28;20043;-76
2022/07/05 01:35:10;;;;;;;3.10;1.92;;;;;;;-148.88;73.69;75874.72;5054398;28;20075;-76
2022/07/05 01:37:37;;;;;;;2.97;2.00;;;;;;;-148.88;73.02;75850.34;5054574;28;20492;-76
2022/07/05 01:40:02;;;;;;;3.20;2.33;;;;;;;-148.88;72.60;75850.34;5054616;28;20389;-76
2022/07/05 01:42:28;;;;;;;4.95;1.92;;;;;;;-148.88;72.75;75856.44;5054207;28;20474;-76
2022/07/05 01:44:53;;;;;;;3.33;1.98;;;;;;;-148.88;72.12;75842.22;5054165;28;20029;-76
2022/07/05 01:47:18;;;;;;;3.65;2.20;;;;;;;-148.88;72.63;75844.25;5054457;28;20099;-76
2022/07/05 01:49:47;;;;;;;4.47;2.38;;;;;;;-148.88;72.77;75842.22;5035992;28;20036;-76
2022/07/05 01:52:15;;;;;;;3.88;2.45;;;;;;;-148.88;73.35;75840.19;5054229;28;20029;-76
2022/07/05 01:54:41;;;;;;;5.65;2.70;;;;;;;-148.88;73.26;75842.22;5036022;28;20024;-76
2022/07/05 01:57:07;;;;;;;3.13;2.47;;;;;;;-148.88;72.99;75830.03;5053947;28;20026;-76
2022/07/05 01:59:34;;;;;;;4.55;2.63;;;;;;;-148.88;73.11;75834.09;5036010;28;20017;-76
2022/07/05 02:02:00;;;;;;;4.00;2.50;;;;;;;-148.88;72.95;75832.06;5054262;28;20104;-76
2022/07/05 02:04:26;;;;;;;5.35;2.60;;;;;;;-148.88;73.42;75838.16;5054053;28;20060;-76
2022/07/05 02:06:51;;;;;;;5.03;2.60;;;;;;;-148.88;73.94;75840.19;5053772;28;20052;-77
2022/07/05 02:09:17;;;;;;;5.40;2.70;;;;;;;-148.88;73.28;75836.13;5035730;28;20500;-76
2022/07/05 02:11:42;;;;;;;4.15;2.50;;;;;;;-148.88;72.46;75817.84;5053789;28;20402;-76
2022/07/05 02:14:08;;;;;;;6.93;2.95;;;;;;;-148.88;72.40;75830.03;5053946;28;20025;-76
2022/07/05 02:16:33;;;;;;;5.15;2.92;;;;;;;-148.88;72.17;75821.91;5053598;28;20025;-76
2022/07/05 02:18:59;;;;;;;4.65;2.35;;;;;;;-148.88;72.41;75825.97;5053469;28;20024;-76
2022/07/05 02:21:24;;;;;;;4.03;2.65;;;;;;;-148.88;72.96;75832.06;5053477;28;20397;-76
2022/07/05 02:23:50;;;;;;;4.55;2.83;;;;;;;-148.88;72.81;75838.16;5053058;28;20029;-76
2022/07/05 02:26:16;;;;;;;3.97;2.80;;;;;;;-148.88;73.24;75842.22;5053410;28;20483;-77
2022/07/05 02:28:41;;;;;;;4.13;2.85;;;;;;;-148.88;73.29;75842.22;5053539;28;20103;-76
2022/07/05 02:31:07;;;;;;;5.00;2.88;;;;;;;-148.88;74.63;75856.44;5053396;28;20507;-76
2022/07/05 02:33:32;;;;;;;4.95;3.10;;;;;;;-148.88;74.45;75856.44;5053940;28;20029;-77
2022/07/05 02:36:06;;;;;;;4.57;3.10;;;;;;;-148.88;74.82;75870.66;5053339;28;20025;-77
2022/07/05 02:38:31;;;;;;;;;;;;;;;-148.88;74.90;75870.66;5035872;28;20426;-76
2022/07/05 02:40:56;;;;;;;5.13;3.00;;;;;;;-148.88;75.21;75874.72;5053621;28;19954;-76
2022/07/05 02:43:22;;;;;;;4.80;2.92;;;;;;;-148.88;75.80;75886.91;5053759;28;20029;-76
2022/07/05 02:45:47;;;;;;;5.07;2.50;;;;;;;-148.88;76.40;75893.00;5053096;28;20103;-76
2022/07/05 02:48:12;;;;;;;7.38;2.70;;;;;;;-148.88;76.56;75899.09;5053274;28;20028;-78
2022/07/05 02:50:38;;;;;;;3.70;2.53;;;;;;;-148.88;77.63;75907.22;5053240;28;20021;-78
2022/07/05 02:53:03;;;;;;;4.35;2.83;;;;;;;-148.88;77.73;75921.44;5053202;28;20025;-77
2022/07/05 02:55:28;;;;;;;3.60;2.60;;;;;;;-148.88;77.11;75915.34;5035165;28;20059;-76
2022/07/05 02:57:54;;;;;;;4.15;2.53;;;;;;;-148.88;77.56;75923.47;5053325;28;20025;-76
2022/07/05 03:00:19;;;;;;;3.75;2.78;;;;;;;-148.88;77.99;75937.69;5053503;28;20113;-76
2022/07/05 03:02:44;;;;;;;5.97;2.78;;;;;;;-148.88;78.30;75931.59;5053043;28;20540;-76
2022/07/05 03:05:10;;;;;;;5.25;3.00;;;;;;;-148.88;78.09;75919.41;5053637;28;20023;-76
2022/07/05 03:07:35;;;;;;;4.15;2.88;;;;;;;-148.88;77.99;75911.28;5053118;28;20027;-76
2022/07/05 03:10:00;;;;;;;7.07;2.88;;;;;;;-148.88;77.29;75909.25;5052993;28;20025;-76
2022/07/05 03:12:25;;;;;;;3.60;2.72;;;;;;;-148.88;76.74;75895.03;5052954;28;20029;-76
2022/07/05 03:14:51;;;;;;;4.22;2.65;;;;;;;-148.88;76.00;75888.94;5035040;28;20033;-76
2022/07/05 03:17:16;;;;;;;4.45;2.92;;;;;;;-148.88;76.47;75895.03;5052864;28;20081;-76
2022/07/05 03:19:41;;;;;;;5.55;3.00;;;;;;;-148.88;77.57;75903.16;5052751;28;20024;-76
2022/07/05 03:22:06;;;;;;;4.10;2.92;;;;;;;-148.88;76.79;75895.03;5052794;28;20033;-76
2022/07/05 03:24:32;;;;;;;5.95;3.22;;;;;;;-148.88;77.56;75909.25;5052767;28;20531;-77
2022/07/05 03:26:57;;;;;;;4.32;3.10;;;;;;;-148.88;77.31;75903.16;5034917;28;20029;-76
2022/07/05 03:29:22;;;;;;;5.70;3.05;;;;;;;-148.88;77.38;75899.09;5052635;28;20065;-76
2022/07/05 03:31:48;;;;;;;5.25;2.95;;;;;;;-148.88;77.18;75909.25;5052689;28;20040;-76
2022/07/05 03:34:13;;;;;;;5.65;3.08;;;;;;;-148.88;78.09;75915.34;5036097;28;20478;-76
2022/07/05 03:36:38;;;;;;;4.40;2.97;;;;;;;-148.88;78.41;75917.38;5056931;28;20116;-76
2022/07/05 03:39:04;;;;;;;5.65;3.00;;;;;;;-148.88;78.87;75929.56;5056550;28;20025;-76
2022/07/05 03:41:29;;;;;;;5.53;3.50;;;;;;;-148.88;79.04;75955.97;5056783;28;20500;-76
2022/07/05 03:43:54;;;;;;;5.38;3.50;;;;;;;-148.88;79.51;75958.00;5056445;28;20020;-76
2022/07/05 03:46:19;;;;;;;6.55;3.30;;;;;;;-148.88;79.44;75958.00;5056633;28;20032;-77
2022/07/05 03:48:45;;;;;;;5.32;3.28;;;;;;;-148.88;79.66;75951.91;5056511;28;20451;-77
2022/07/05 03:51:10;;;;;;;5.72;3.20;;;;;;;-148.88;79.11;75943.78;5038490;28;20021;-77
2022/07/05 03:53:35;;;;;;;5.15;2.75;;;;;;;-148.88;78.50;75929.56;5056448;28;20539;-76
2022/07/05 03:56:01;;;;;;;4.05;3.03;;;;;;;-148.88;78.57;75923.47;5056260;28;20025;-77
2022/07/05 03:58:26;;;;;;;6.97;3.63;;;;;;;-148.88;78.23;75923.47;5056200;28;20486;-77
2022/07/05 04:00:52;;;;;;;5.95;3.28;;;;;;;-148.88;78.18;75937.69;5056202;28;20021;-77
2022/07/05 04:03:17;;;;;;;5.10;3.00;;;;;;;-148.88;78.84;75945.81;5056339;28;20024;-77
2022/07/05 04:05:42;;;;;;;4.10;3.08;;;;;;;-148.88;80.02;75964.09;5056101;28;20108;-77
2022/07/05 04:08:07;;;;;;;7.15;3.08;;;;;;;-148.88;80.66;75972.22;5056503;28;20060;-77
2022/07/05 04:10:33;;;;;;;4.20;3.20;;;;;;;-148.88;80.84;75982.38;5057026;28;20021;-77
2022/07/05 04:12:58;;;;;;;5.07;3.63;;;;;;;-148.88;80.84;75972.22;5057711;28;20478;-78
2022/07/05 04:15:23;;;;;;;7.22;3.15;;;;;;;-148.88;79.79;75955.97;5056932;28;20052;-77
2022/07/05 04:17:58;;;;;;;5.47;3.47;;;;;;;-148.88;79.37;75953.94;5056194;28;20470;-77
2022/07/05 04:20:24;;;;;;;5.00;3.17;;;;;;;-148.88;79.17;75943.78;5055857;28;20028;-76
2022/07/05 04:22:50;;;;;;;4.25;3.10;;;;;;;-148.88;79.29;75949.88;5037864;28;20029;-77
2022/07/05 04:25:16;;;;;;;6.03;3.40;;;;;;;-148.88;80.08;75943.78;5056223;28;20083;-76
2022/07/05 04:27:41;;;;;;;6.75;3.10;;;;;;;-148.88;79.51;75935.66;5055688;28;20479;-76
2022/07/05 04:30:08;;;;;;;3.50;2.85;;;;;;;-148.88;79.44;75935.66;5037657;28;20021;-76
2022/07/05 04:32:34;;;;;;;4.93;3.10;;;;;;;-148.88;79.08;75943.78;5055563;28;20497;-76
2022/07/05 04:34:59;;;;;;;5.00;3.28;;;;;;;-148.88;79.27;75931.59;5055553;28;20052;-76
2022/07/05 04:37:24;;;;;;;5.25;3.47;;;;;;;-148.88;79.39;75937.69;5056019;28;20063;-76
2022/07/05 04:39:49;;;;;;;5.18;3.03;;;;;;;-148.88;79.81;75947.84;5055340;28;20371;-76
2022/07/05 04:42:15;;;;;;;6.85;3.55;;;;;;;-148.88;81.26;75943.78;5055628;28;20029;-76
2022/07/05 04:44:40;;;;;;;5.38;3.45;;;;;;;-148.88;80.78;75951.91;5055783;28;20112;-78
2022/07/05 04:47:05;;;;;;;5.88;3.28;;;;;;;-148.88;81.31;75955.97;5054280;28;20024;-77
2022/07/05 04:49:31;;;;;;;4.28;3.60;;;;;;;-148.88;81.01;75958.00;5037187;28;20538;-77
2022/07/05 04:51:56;;;;;;;5.88;3.20;;;;;;;-148.88;80.79;75960.03;5055227;28;20098;-77
2022/07/05 04:54:21;;;;;;;5.65;3.42;;;;;;;-148.88;81.20;75955.97;5055234;28;20021;-78
2022/07/05 04:56:47;;;;;;;5.57;3.25;;;;;;;-148.88;80.83;75958.00;5055110;28;20044;-77
2022/07/05 04:59:12;;;;;;;6.90;3.38;;;;;;;-148.88;81.21;75951.91;5054978;28;20021;-76
2022/07/05 05:01:37;;;;;;;7.88;3.45;;;;;;;-148.88;80.62;75943.78;5054990;28;20131;-77
2022/07/05 05:04:02;;;;;;;5.55;3.20;;;;;;;-148.88;80.07;75935.66;5054983;28;20532;-76
2022/07/05 05:06:28;;;;;;;5.28;3.42;;;;;;;-148.88;79.97;75931.59;5054859;28;20103;-76
2022/07/05 05:08:53;;;;;;;6.40;3.63;;;;;;;-148.88;80.32;75935.66;5054848;28;20021;-76
2022/07/05 05:11:18;;;;;;;4.97;3.25;;;;;;;-148.88;80.36;75929.56;5055017;28;20441;-76
2022/07/05 05:13:45;;;;;;;5.65;3.30;;;;;;;-148.88;79.49;75913.31;5055172;28;20037;-76
2022/07/05 05:16:11;;;;;;;5.80;3.47;;;;;;;-148.88;80.53;75919.41;5036897;28;20493;-76
2022/07/05 05:18:36;;;;;;;4.40;3.20;;;;;;;-148.88;80.40;75913.31;5054892;28;20108;-76
2022/07/05 05:21:01;;;;;;;7.00;3.58;;;;;;;-148.88;79.72;75911.28;5054635;28;20024;-77
2022/07/05 05:23:26;;;;;;;5.30;3.35;;;;;;;-148.88;79.71;75903.16;5054578;28;20028;-76
2022/07/05 05:25:52;;;;;;;4.30;3.90;;;;;;;-148.88;79.89;75911.28;5054800;28;20025;-76
2022/07/05 05:28:17;;;;;;;5.03;3.17;;;;;;;-148.88;80.67;75909.25;5054570;28;20020;-76
2022/07/05 05:30:42;;;;;;;5.30;3.33;;;;;;;-148.88;80.23;75899.09;5054303;28;20028;-77
2022/07/05 05:33:08;;;;;;;4.30;3.20;;;;;;;-148.88;80.46;75890.97;5036493;28;20052;-77
2022/07/05 05:35:33;;;;;;;6.60;3.38;;;;;;;-148.88;80.16;75899.09;5036447;28;20389;-76
2022/07/05 05:37:58;;;;;;;5.57;3.53;;;;;;;-148.88;81.05;75907.22;5054309;28;20082;-76
2022/07/05 05:40:25;;;;;;;5.53;3.92;;;;;;;-148.88;80.52;75907.22;5036293;28;20044;-76
2022/07/05 05:42:52;;;;;;;6.13;3.40;;;;;;;-148.88;80.55;75893.00;5054255;28;20032;-76
2022/07/05 05:45:18;;;;;;;4.03;3.50;;;;;;;-148.88;80.94;75886.91;5036369;28;20032;-77
2022/07/05 05:47:51;;;;;;;6.05;3.50;;;;;;;-148.88;80.43;75874.72;5054399;28;20036;-76
2022/07/05 05:50:21;;;;;;;5.53;3.22;;;;;;;-148.88;80.14;75862.53;5054275;28;20062;-77
2022/07/05 05:52:47;;;;;;;7.97;3.70;;;;;;;-148.88;80.33;75870.66;5054271;28;20081;-77
2022/07/05 05:55:12;;;;;;;5.43;3.67;;;;;;;-148.88;80.61;75868.63;5053987;28;20025;-77
2022/07/05 05:57:38;;;;;;;7.53;3.78;;;;;;;-148.88;80.24;75852.38;5054222;28;20031;-77
2022/07/05 06:00:04;;;;;;;5.03;3.80;;;;;;;-148.88;80.73;75854.41;5053856;28;20029;-77
2022/07/05 06:02:29;;;;;;;5.18;3.05;;;;;;;-148.88;81.04;75854.41;5054079;28;20016;-77
2022/07/05 06:04:55;;;;;;;5.93;3.78;;;;;;;-148.88;81.29;75856.44;5054061;28;20434;-77
2022/07/05 06:07:20;;;;;;;5.65;3.90;;;;;;;-148.88;83.40;75850.34;5054023;28;20033;-76
2022/07/05 06:09:45;;;;;;;6.72;3.85;;;;;;;-148.88;84.09;75840.19;5053542;28;20021;-76
2022/07/05 06:12:10;;;;;;;6.45;3.67;;;;;;;-148.88;84.04;75813.78;5053691;28;20029;-76
2022/07/05 06:14:36;;;;;;;6.85;4.13;;;;;;;-148.88;82.57;75805.66;5085612;22;20105;-81
2022/07/05 06:17:01;;;;;;;6.43;3.92;;;;;;;-148.88;82.01;75793.47;5056646;28;20035;-82
2022/07/05 06:19:27;;;;;;;5.50;4.00;;;;;;;-148.88;81.50;75787.38;5074416;28;20070;-82
2022/07/05 06:21:52;;;;;;;4.65;3.30;;;;;;;-148.88;81.21;75781.28;5076300;28;20074;-82
2022/07/05 06:24:17;;;;;;;4.68;3.00;;;;;;;-148.88;77.62;75775.19;5073603;28;20105;-82
2022/07/05 06:26:42;;;;;;;5.60;3.13;;;;;;;-148.88;76.16;75767.06;5073794;28;20020;-83
2022/07/05 06:29:08;;;;;;;4.72;3.20;;;;;;;-148.88;75.33;75754.88;5073409;28;20421;-83
2022/07/05 06:31:33;;;;;;;5.00;2.83;;;;;;;-148.88;73.59;75742.69;5055154;28;20025;-82
2022/07/05 06:33:59;;;;;;;4.65;3.10;;;;;;;-148.88;73.76;75728.47;5072949;28;20089;-82
2022/07/05 06:36:24;;;;;;;3.85;2.72;;;;;;;-148.88;74.22;75708.16;5072949;28;20474;-82
2022/07/05 06:38:49;;;;;;;4.13;2.83;;;;;;;-148.88;72.65;75712.22;5073890;28;20031;-82
2022/07/05 06:41:14;;;;;;;5.90;3.13;;;;;;;-148.88;73.13;75720.34;5055366;28;20080;-83
2022/07/05 06:43:40;;;;;;;3.80;2.80;;;;;;;-148.88;72.96;75712.22;5073701;28;20032;-82
2022/07/05 06:46:05;;;;;;;5.70;2.95;;;;;;;-148.88;73.47;75700.03;5073199;28;20024;-82
2022/07/05 06:48:30;;;;;;;4.40;2.75;;;;;;;-148.88;71.62;75695.97;5073586;28;20058;-83
2022/07/05 06:50:56;;;;;;;4.72;2.72;;;;;;;-148.88;71.65;75683.78;5073372;28;20032;-82
2022/07/05 06:53:21;;;;;;;6.50;2.72;;;;;;;-148.88;71.45;75667.53;5055128;28;20066;-84
2022/07/05 06:55:46;;;;;;;3.97;2.30;;;;;;;-148.88;69.44;75665.50;5055387;28;20112;-84
2022/07/05 06:58:12;;;;;;;4.28;2.35;;;;;;;-148.88;68.53;75663.47;5073577;28;20432;-83
2022/07/05 07:00:38;;;;;;;3.67;2.30;;;;;;;-148.88;68.79;75659.41;5073374;28;20032;-82
2022/07/05 07:03:04;;;;;;;5.55;2.70;;;;;;;-148.88;67.79;75639.09;5073121;28;20031;-82
2022/07/05 07:05:29;;;;;;;5.10;2.25;;;;;;;-148.88;67.82;75635.03;5073108;28;20504;-83
2022/07/05 07:10:38;;;;;;;;;;;;;;;-148.88;68.63;75610.66;5077500;28;20032;-82
2022/07/05 07:13:04;;;;;;;5.33;2.80;;;;;;;-148.88;67.46;75606.59;5058785;28;19908;-82
2022/07/05 07:15:30;;;;;;;3.55;1.77;;;;;;;-148.88;64.51;75618.78;5076954;28;20261;-82
2022/07/05 07:17:55;;;;;;;4.05;2.00;;;;;;;-148.88;63.38;75612.69;5058973;28;20478;-82
2022/07/05 07:20:21;;;;;;;4.00;1.80;;;;;;;-148.88;63.44;75594.44;5076701;28;20108;-82
2022/07/05 07:22:46;;;;;;;3.28;1.70;;;;;;;-148.88;61.01;75590.34;5058465;28;20024;-82
2022/07/05 07:25:11;;;;;;;5.25;2.13;;;;;;;-148.88;62.30;75608.63;5076602;28;20099;-82
2022/07/05 07:27:48;;;;;;;4.05;2.00;;;;;;;-148.88;62.83;75584.25;5060122;28;20020;-82
2022/07/05 07:30:15;;;;;;;4.53;1.77;;;;;;;-148.88;61.42;75570.03;5058750;28;20340;-83
2022/07/05 07:32:41;;;;;;;5.82;1.58;;;;;;;-148.88;59.48;75543.66;5058705;28;20028;-82
2022/07/05 07:35:08;;;;;;;3.60;1.30;;;;;;;-148.88;56.20;75533.50;5076437;28;20489;-82
2022/07/05 07:37:33;;;;;;;3.67;1.60;;;;;;;-148.88;54.91;75521.31;5076566;28;20459;-82
2022/07/05 07:40:00;;;;;;;3.33;1.48;;;;;;;-148.88;55.14;75505.06;5077114;28;20025;-84
2022/07/05 07:42:26;;;;;;;2.78;0.90;;;;;;;-148.88;51.88;75436.00;5058754;28;20028;-85
2022/07/05 07:44:51;;;;;;;3.83;1.13;;;;;;;-148.88;51.00;75468.50;5076413;28;20053;-84
2022/07/05 07:47:16;;;;;;;3.13;0.98;;;;;;;-148.88;47.44;75464.44;5076035;28;20056;-85
2022/07/05 07:49:42;;;;;;;4.72;1.00;;;;;;;-148.88;47.95;75411.63;5075992;28;20036;-83
2022/07/05 07:52:07;;;;;;;3.33;1.20;;;;;;;-148.88;48.07;75464.44;5075663;28;20021;-84
2022/07/05 07:54:32;;;;;;;2.65;0.90;;;;;;;-148.88;46.04;75440.06;5075713;28;20115;-83
2022/07/05 07:56:59;;;;;;;1.75;0.88;;;;;;;-148.88;44.25;75448.19;5075802;28;20025;-84
2022/07/05 07:59:25;;;;;;;3.90;1.10;;;;;;;-148.88;46.14;75423.81;5057996;28;20552;-83
2022/07/05 08:01:50;;;;;;;3.45;1.00;;;;;;;-148.88;46.19;75444.13;5058126;28;20071;-84
2022/07/05 08:04:16;;;;;;;2.55;0.88;;;;;;;-148.88;45.92;75456.31;5075832;28;20452;-83
2022/07/05 08:06:42;;;;;;;5.15;1.02;;;;;;;-148.88;46.20;75476.63;5076427;28;20027;-83
2022/07/05 08:09:07;;;;;;;5.43;1.15;;;;;;;-148.88;45.08;75480.69;5075451;28;20028;-84
2022/07/05 08:11:33;;;;;;;2.75;1.00;;;;;;;-148.88;46.22;75468.50;5075875;28;20021;-82
2022/07/05 08:13:58;;;;;;;3.78;1.00;;;;;;;-148.88;45.42;75440.06;5075777;28;20036;-83
2022/07/05 08:16:24;;;;;;;2.38;0.90;;;;;;;-148.88;45.73;75468.50;5075872;28;20028;-82
2022/07/05 08:21:38;;;;;;;3.03;0.80;;;;;;;-148.88;45.76;75460.38;5076142;28;20024;-84
2022/07/05 08:24:11;;;;;;;4.35;1.00;;;;;;;-148.88;45.71;75438.03;5075458;28;20031;-82
2022/07/05 08:26:37;;;;;;;1.98;0.80;;;;;;;-148.88;43.59;75444.13;5057893;28;20020;-83
2022/07/05 08:29:04;;;;;;;1.58;0.90;;;;;;;-148.88;44.45;75436.00;5075062;28;20398;-84
2022/07/05 08:31:32;;;;;;;3.25;0.80;;;;;;;-148.88;42.97;75436.00;5075339;28;20028;-84
2022/07/05 08:33:58;;;;;;;2.97;0.80;;;;;;;-148.88;45.25;75423.81;5057272;28;20119;-83
2022/07/05 08:36:24;;;;;;;3.95;1.17;;;;;;;-148.88;44.85;75433.97;5075772;28;20025;-83
2022/07/05 08:38:49;;;;;;;2.60;1.02;;;;;;;-148.88;45.03;75403.50;5075293;28;20504;-83
2022/07/05 08:41:18;;;;;;;5.95;1.00;;;;;;;-148.88;44.81;75391.31;5075858;28;20546;-84
2022/07/05 08:43:46;;;;;;;2.35;1.00;;;;;;;-148.88;44.58;75427.88;5057841;28;20058;-83
2022/07/05 08:46:13;;;;;;;2.38;0.80;;;;;;;-148.88;45.00;75354.75;5075366;28;20364;-83
2022/07/05 08:48:43;;;;;;;2.25;0.82;;;;;;;-148.88;43.47;75326.31;5075312;28;20029;-84
2022/07/05 08:51:23;;;;;;;3.20;1.00;;;;;;;-148.88;43.46;75293.81;5075680;28;20032;-83
2022/07/05 08:53:52;;;;;;;2.63;1.08;;;;;;;-148.88;43.62;75308.03;5075515;28;20025;-82
2022/07/05 08:56:18;;;;;;;2.50;1.00;;;;;;;-148.88;43.82;75322.25;5058273;28;20379;-83
2022/07/05 08:58:44;;;;;;;3.67;0.93;;;;;;;-148.88;43.95;75306.00;5075285;28;20021;-85
2022/07/05 09:01:10;;;;;;;2.85;0.90;;;;;;;-148.88;42.93;75330.38;5075211;28;20534;-85
2022/07/05 09:03:52;;;;;;;2.63;0.80;;;;;;;-148.88;40.96;75306.00;5074568;28;20107;-83
2022/07/05 09:06:24;;;;;;;1.88;0.77;;;;;;;-148.88;41.48;75301.94;5056763;28;20036;-82
2022/07/05 09:08:53;;;;;;;1.13;0.70;;;;;;;-148.88;41.00;75275.56;5074821;28;20035;-83
2022/07/05 09:11:24;;;;;;;1.88;0.80;;;;;;;-148.88;40.97;75289.75;5074780;28;20024;-82
2022/07/05 09:13:50;;;;;;;2.08;0.73;;;;;;;-148.88;41.06;75283.66;5056599;28;20040;-83
2022/07/05 09:16:15;;;;;;;1.30;0.77;;;;;;;-148.88;41.26;75269.47;5074295;28;20031;-82
2022/07/05 09:18:49;;;;;;;3.08;1.00;;;;;;;-148.88;39.01;75253.22;5074786;28;20064;-83
2022/07/05 09:21:23;;;;;;;3.08;0.90;;;;;;;-148.88;39.46;75245.09;5056478;28;20027;-83
2022/07/05 09:23:56;;;;;;;1.95;0.90;;;;;;;-148.88;38.89;75301.94;5074076;28;20060;-86
2022/07/05 09:26:31;;;;;;;2.17;0.60;;;;;;;-148.88;39.21;75306.00;5075206;28;20032;-84
2022/07/05 09:28:57;;;;;;;2.83;0.80;;;;;;;-148.88;39.76;75285.69;5074807;28;20272;-83
2022/07/05 09:31:31;;;;;;;3.92;0.93;;;;;;;-148.88;39.12;75249.16;5074429;28;20024;-83
2022/07/05 09:34:05;;;;;;;2.33;0.70;;;;;;;-148.88;39.75;75224.78;5074906;28;20021;-83
2022/07/05 09:37:03;;;;;;;3.63;0.80;;;;;;;-148.88;39.91;75163.84;5074891;28;20028;-83
2022/07/05 09:39:29;;;;;;;2.90;1.00;;;;;;;-148.88;39.92;75147.59;5056647;28;20030;-83
2022/07/05 09:42:13;;;;;;;3.03;0.90;;;;;;;-148.88;39.17;75190.25;5074086;28;20020;-83
2022/07/05 09:44:41;;;;;;;2.55;0.93;;;;;;;-148.88;39.24;75204.47;5055475;28;20027;-83
2022/07/05 09:47:12;;;;;;;3.55;0.98;;;;;;;-148.88;39.82;75155.72;5055626;28;20029;-84
2022/07/05 09:49:40;;;;;;;2.45;0.80;;;;;;;-148.88;38.55;75131.34;5055757;28;20033;-84
2022/07/05 09:52:06;;;;;;;2.45;0.80;;;;;;;-148.88;37.75;75102.91;5073820;28;20024;-84
2022/07/05 09:54:31;;;;;;;1.95;0.75;;;;;;;-148.88;38.25;75088.72;5073511;28;20066;-82
2022/07/05 09:56:56;;;;;;;3.25;1.05;;;;;;;-148.88;38.85;75062.31;5073833;28;20475;-84
2022/07/05 09:59:22;;;;;;;3.25;0.98;;;;;;;-148.88;36.93;75046.06;5073628;28;20470;-83
2022/07/05 10:01:47;;;;;;;2.50;0.98;;;;;;;-148.88;38.71;75155.72;5073590;28;20096;-83
2022/07/05 10:04:13;;;;;;;3.17;1.00;;;;;;;-148.88;39.21;75218.69;5074489;28;20028;-83
2022/07/05 10:06:38;;;;;;;2.65;1.17;;;;;;;-148.88;40.23;75202.44;5075121;28;20111;-84
2022/07/05 10:09:05;;;;;;;1.52;0.80;;;;;;;-148.88;40.43;75198.38;5073905;28;20386;-81
2022/07/05 10:11:30;;;;;;;3.70;0.90;;;;;;;-148.88;40.54;75245.09;5055599;28;20025;-84
2022/07/05 10:13:58;;;;;;;2.15;0.98;;;;;;;-148.88;40.09;75230.88;5055549;28;20115;-83
2022/07/05 10:16:24;;;;;;;1.92;0.85;;;;;;;-148.88;39.98;75147.59;5073396;28;20050;-83
2022/07/05 10:18:54;;;;;;;2.70;0.90;;;;;;;-148.88;40.81;75113.06;5055976;28;20134;-83
2022/07/05 10:21:20;;;;;;;1.75;0.90;;;;;;;-148.88;39.68;75070.44;5073578;28;20020;-83
2022/07/05 10:23:47;;;;;;;2.22;0.70;;;;;;;-148.88;40.33;75139.47;5055117;28;20536;-81
2022/07/05 10:26:15;;;;;;;4.15;1.10;;;;;;;-148.88;38.96;75119.16;5073758;28;20017;-82
2022/07/05 10:28:44;;;;;;;3.80;0.98;;;;;;;-148.88;39.50;75074.50;5073196;28;20467;-83
2022/07/05 10:31:11;;;;;;;2.50;1.05;;;;;;;-148.88;38.63;75058.25;5055293;28;20078;-83
2022/07/05 10:33:38;;;;;;;2.25;1.00;;;;;;;-148.88;38.60;75076.53;5055539;28;20021;-83
2022/07/05 10:36:04;;;;;;;2.67;0.85;;;;;;;-148.88;37.29;74997.31;5073325;28;20033;-83
2022/07/05 10:38:30;;;;;;;2.80;0.95;;;;;;;-148.88;37.38;75001.38;5055576;28;20021;-83
2022/07/05 10:41:01;;;;;;;3.95;1.20;;;;;;;-148.88;37.18;75025.75;5073345;28;20023;-81
2022/07/05 10:43:27;;;;;;;1.88;0.80;;;;;;;-148.88;37.87;75003.41;5054748;28;20055;-84
2022/07/05 10:45:53;;;;;;;1.88;0.80;;;;;;;-148.88;37.43;75058.25;5055168;28;20021;-81
2022/07/05 10:48:23;;;;;;;2.15;0.90;;;;;;;-148.88;37.03;75060.28;5074261;28;20021;-81
2022/07/05 10:50:54;;;;;;;2.47;0.77;;;;;;;-148.88;37.04;75070.44;5074010;28;20052;-82
2022/07/05 10:53:22;;;;;;;2.63;0.80;;;;;;;-148.88;36.98;75102.91;5073324;28;20033;-83
2022/07/05 10:55:48;;;;;;;4.20;1.00;;;;;;;-148.88;37.89;75084.66;5055115;28;20020;-81
2022/07/05 10:58:17;;;;;;;2.03;0.90;;;;;;;-148.88;36.32;75050.13;5055573;28;20398;-82
2022/07/05 11:00:43;;;;;;;2.45;1.00;;;;;;;-148.88;37.49;75019.66;5054850;28;20479;-81
2022/07/05 11:03:35;;;;;;;2.83;0.70;;;;;;;-148.88;38.08;74932.34;5054619;28;20035;-82
2022/07/05 11:06:04;;;;;;;3.28;0.75;;;;;;;-148.88;39.59;74891.72;5072516;28;20453;-81
2022/07/05 11:08:32;;;;;;;1.60;0.85;;;;;;;-148.88;36.31;74916.09;5054570;28;20028;-82
2022/07/05 11:11:23;;;;;;;2.95;0.70;;;;;;;-148.88;37.18;75005.44;5072660;28;20024;-83
2022/07/05 11:13:48;;;;;;;1.90;0.90;;;;;;;-148.88;37.60;75074.50;5055316;28;20028;-83
2022/07/05 11:16:28;;;;;;;3.08;1.00;;;;;;;-148.88;38.61;75111.03;5055003;28;20399;-83
2022/07/05 11:19:04;;;;;;;3.28;1.10;;;;;;;-148.88;38.41;75131.34;5056016;28;20020;-82
2022/07/05 11:21:29;;;;;;;2.75;1.02;;;;;;;-148.88;37.81;75147.59;5072936;28;20486;-83
2022/07/05 11:24:17;;;;;;;2.72;0.90;;;;;;;-148.88;38.43;75131.34;5055750;28;20024;-83
2022/07/05 11:26:43;;;;;;;2.30;0.93;;;;;;;-148.88;38.30;75135.41;5073567;28;20074;-82
2022/07/05 11:29:44;;;;;;;2.20;0.90;;;;;;;-148.88;38.91;75133.38;5055698;28;20063;-84